Time;durP1;ratioP1;P1;durP2;ratioP2;P2;SDS_P1;SDS_P2;PMS_P1;PMS_P2;Temp;Humidity;BMP_temperature;BMP_pressure;BME280_temperature;BME280_humidity;BME280_pressure;Samples;Min_cycle;Max_cycle;Signal;HPM_P1;HPM_P2
2023/09/27 00:01:27;;;;;;;7.35;3.38;;;;;;;17.15;77.16;93313.31;5111527;27;20131;-76
2023/09/27 00:03:54;;;;;;;7.63;3.33;;;;;;;17.07;75.76;93319.75;5111094;27;20047;-76
2023/09/27 00:06:22;;;;;;;7.63;2.67;;;;;;;17.06;77.33;93312.19;5111034;27;20087;-75
2023/09/27 00:08:49;;;;;;;6.32;2.55;;;;;;;16.93;78.46;93311.56;5110741;27;20419;-75
2023/09/27 00:11:16;;;;;;;7.43;2.75;;;;;;;16.75;80.48;93312.69;5110591;27;20051;-75
2023/09/27 00:13:43;;;;;;;9.95;3.70;;;;;;;16.61;81.07;93294.13;5110764;28;20051;-75
2023/09/27 00:16:10;;;;;;;5.85;3.00;;;;;;;16.73;81.40;93308.75;5111131;27;20415;-75
2023/09/27 00:18:37;;;;;;;4.80;2.80;;;;;;;16.78;81.35;93306.22;5114627;27;20059;-76
2023/09/27 00:21:04;;;;;;;6.25;2.70;;;;;;;16.63;82.05;93310.25;5110707;27;20050;-76
2023/09/27 00:23:32;;;;;;;5.45;2.55;;;;;;;16.68;81.59;93325.84;5114181;27;20138;-75
2023/09/27 00:25:59;;;;;;;5.50;2.70;;;;;;;16.78;81.29;93309.59;5111666;27;20136;-76
2023/09/27 00:28:26;;;;;;;6.78;2.53;;;;;;;16.76;81.29;93321.25;5110900;27;20499;-76
2023/09/27 00:30:52;;;;;;;9.98;3.10;;;;;;;16.78;82.30;93296.63;5114497;27;20372;-77
2023/09/27 00:33:19;;;;;;;9.40;2.80;;;;;;;16.74;82.80;93310.31;5110397;27;20051;-76
2023/09/27 00:35:49;;;;;;;5.97;2.65;;;;;;;16.74;83.11;93297.34;5111781;27;20669;-75
2023/09/27 00:38:16;;;;;;;5.55;2.63;;;;;;;16.86;83.50;93289.44;5113798;27;20068;-76
2023/09/27 00:40:47;;;;;;;6.05;2.88;;;;;;;16.80;84.29;93299.00;5114522;27;20051;-76
2023/09/27 00:43:27;;;;;;;5.25;2.40;;;;;;;16.85;83.15;93303.44;5114434;27;20097;-76
2023/09/27 00:45:58;;;;;;;10.88;3.00;;;;;;;16.87;83.35;93309.16;5126792;27;20043;-76
2023/09/27 00:48:25;;;;;;;7.53;3.10;;;;;;;16.75;82.91;93289.34;5129157;27;20043;-76
2023/09/27 00:50:53;;;;;;;8.27;3.45;;;;;;;16.76;83.09;93296.09;5118979;27;20051;-76
2023/09/27 00:53:22;;;;;;;9.25;4.30;;;;;;;16.82;82.93;93325.47;5109447;27;20044;-76
2023/09/27 00:55:51;;;;;;;11.40;4.47;;;;;;;16.87;83.02;93314.34;5114377;27;20385;-76
2023/09/27 00:58:19;;;;;;;17.98;8.93;;;;;;;16.83;84.24;93314.84;5109883;27;20051;-75
2023/09/27 01:00:49;;;;;;;25.85;11.70;;;;;;;16.74;83.72;93302.53;5117820;27;20047;-76
2023/09/27 01:03:16;;;;;;;33.75;13.73;;;;;;;16.79;84.77;93315.56;5109668;28;20050;-76
2023/09/27 01:05:43;;;;;;;96.95;42.45;;;;;;;16.80;84.89;93319.75;5109900;27;20048;-76
2023/09/27 01:08:10;;;;;;;38.40;17.13;;;;;;;16.71;85.16;93319.38;5111751;27;20039;-76
2023/09/27 01:10:38;;;;;;;19.60;8.80;;;;;;;16.56;81.90;93307.06;5109744;27;20055;-77
2023/09/27 01:13:07;;;;;;;12.48;6.28;;;;;;;16.55;82.15;93308.09;5113356;27;20503;-76
2023/09/27 01:15:34;;;;;;;9.13;3.60;;;;;;;16.43;81.03;93310.81;5112608;27;20159;-76
2023/09/27 01:18:02;;;;;;;5.63;2.53;;;;;;;16.51;81.12;93320.75;5109125;27;20495;-76
2023/09/27 01:20:30;;;;;;;6.82;2.35;;;;;;;16.57;80.28;93324.16;5110137;27;20055;-76
2023/09/27 01:22:59;;;;;;;7.13;3.22;;;;;;;16.55;81.29;93323.63;5109264;27;20051;-76
2023/09/27 01:25:29;;;;;;;7.80;3.13;;;;;;;16.49;82.00;93330.59;5109332;27;20047;-76
2023/09/27 01:27:56;;;;;;;7.25;2.92;;;;;;;16.31;82.51;93323.91;5113039;27;20167;-76
2023/09/27 01:30:24;;;;;;;6.28;2.80;;;;;;;16.28;83.01;93317.41;5108736;27;20480;-76
2023/09/27 01:32:51;;;;;;;6.03;3.17;;;;;;;16.07;83.59;93318.19;5112196;27;20052;-76
2023/09/27 01:35:18;;;;;;;4.28;2.65;;;;;;;16.02;83.83;93306.72;5109225;27;20047;-77
2023/09/27 01:37:45;;;;;;;6.97;2.67;;;;;;;15.92;83.57;93308.41;5109294;27;20510;-77
2023/09/27 01:40:16;;;;;;;6.07;3.00;;;;;;;15.90;83.06;93306.03;5128144;27;20047;-77
2023/09/27 01:42:43;;;;;;;9.05;3.65;;;;;;;15.92;83.52;93306.56;5116658;27;20093;-77
2023/09/27 01:45:12;;;;;;;5.30;2.70;;;;;;;15.90;84.03;93314.59;5109156;27;20051;-76
2023/09/27 01:47:39;;;;;;;5.30;2.60;;;;;;;15.93;83.95;93308.19;5112862;27;20591;-77
2023/09/27 01:50:08;;;;;;;6.53;2.50;;;;;;;15.94;83.88;93320.13;5108919;27;20050;-76
2023/09/27 01:52:35;;;;;;;8.60;3.10;;;;;;;15.93;83.74;93320.34;5113266;27;20039;-77
2023/09/27 01:55:02;;;;;;;8.00;3.38;;;;;;;15.93;83.40;93318.56;5120165;27;20043;-77
2023/09/27 01:57:30;;;;;;;8.77;2.63;;;;;;;15.87;84.34;93306.50;5124183;27;20046;-76
2023/09/27 01:59:57;;;;;;;8.45;2.90;;;;;;;15.92;84.42;93321.34;5122640;27;20066;-76
2023/09/27 02:02:24;;;;;;;6.25;2.92;;;;;;;15.97;84.51;93321.44;5120303;27;20043;-76
2023/09/27 02:04:51;;;;;;;7.15;2.78;;;;;;;15.93;83.89;93325.53;5117100;27;20039;-76
2023/09/27 02:07:18;;;;;;;5.82;2.60;;;;;;;15.93;83.59;93308.19;5117709;27;20472;-77
2023/09/27 02:09:45;;;;;;;7.45;2.72;;;;;;;15.91;84.13;93315.38;5116630;27;20052;-76
2023/09/27 02:12:12;;;;;;;5.10;2.35;;;;;;;15.93;84.57;93305.59;5108855;27;20047;-75
2023/09/27 02:14:40;;;;;;;7.10;2.80;;;;;;;15.99;84.56;93324.56;5112341;27;20047;-76
2023/09/27 02:17:07;;;;;;;8.48;2.75;;;;;;;15.90;84.81;93317.19;5113143;27;20048;-76
2023/09/27 02:19:34;;;;;;;5.78;3.28;;;;;;;15.82;85.13;93322.78;5108775;27;20697;-77
2023/09/27 02:22:01;;;;;;;5.05;3.17;;;;;;;15.85;85.18;93313.75;5112123;27;20049;-77
2023/09/27 02:24:28;;;;;;;5.55;2.60;;;;;;;15.86;85.27;93316.09;5108614;28;20130;-76
2023/09/27 02:26:55;;;;;;;5.45;2.95;;;;;;;15.72;86.04;93300.13;5112959;27;20055;-76
2023/09/27 02:29:22;;;;;;;4.35;2.55;;;;;;;15.76;86.42;93321.94;5108028;27;20048;-77
2023/09/27 02:31:51;;;;;;;4.80;2.65;;;;;;;15.76;87.36;93323.72;5108692;27;20416;-76
2023/09/27 02:34:17;;;;;;;7.82;2.85;;;;;;;15.75;87.98;93317.00;5111131;27;20055;-75
2023/09/27 02:36:46;;;;;;;6.25;3.13;;;;;;;15.67;88.57;93322.56;5108232;28;20059;-76
2023/09/27 02:39:13;;;;;;;5.43;2.75;;;;;;;15.58;89.21;93317.81;5107492;27;20411;-78
2023/09/27 02:41:40;;;;;;;5.93;2.88;;;;;;;15.63;89.47;93319.66;5107251;28;20051;-76
2023/09/27 02:44:07;;;;;;;7.03;3.42;;;;;;;15.44;90.46;93317.34;5112604;27;20043;-77
2023/09/27 02:46:34;;;;;;;6.72;3.70;;;;;;;15.46;90.72;93323.06;5107466;28;20548;-77
2023/09/27 02:49:04;;;;;;;5.43;2.92;;;;;;;15.41;91.21;93327.41;5107645;27;20060;-77
2023/09/27 02:51:32;;;;;;;5.18;2.50;;;;;;;15.43;91.89;93338.28;5108093;28;20051;-76
2023/09/27 02:53:58;;;;;;;6.43;3.08;;;;;;;15.27;92.17;93329.53;5110012;28;20070;-76
2023/09/27 02:56:25;;;;;;;5.75;3.20;;;;;;;15.33;91.92;93342.28;5107868;28;20051;-77
2023/09/27 02:58:52;;;;;;;6.35;3.25;;;;;;;15.26;92.25;93323.56;5107941;28;20052;-77
2023/09/27 03:01:19;;;;;;;9.32;3.50;;;;;;;15.31;92.45;93331.41;5108752;28;20055;-77
2023/09/27 03:03:46;;;;;;;5.95;3.10;;;;;;;15.08;93.01;93325.34;5115647;28;20484;-78
2023/09/27 03:06:16;;;;;;;4.75;2.95;;;;;;;15.18;93.13;93340.25;5110102;28;20441;-78
2023/09/27 03:08:44;;;;;;;4.97;2.65;;;;;;;15.09;92.69;93313.97;5108340;28;20116;-78
2023/09/27 03:11:11;;;;;;;4.35;2.88;;;;;;;15.18;93.02;93337.66;5108385;28;20763;-76
2023/09/27 03:13:37;;;;;;;6.40;2.95;;;;;;;15.19;93.18;93341.03;5114283;27;20494;-77
2023/09/27 03:16:05;;;;;;;5.10;3.08;;;;;;;15.23;92.80;93342.16;5108591;28;20059;-79
2023/09/27 03:18:32;;;;;;;6.25;2.95;;;;;;;15.27;92.93;93342.47;5107956;28;20052;-76
2023/09/27 03:20:59;;;;;;;4.50;2.67;;;;;;;15.17;92.66;93354.22;5122986;28;20047;-77
2023/09/27 03:23:28;;;;;;;5.65;3.30;;;;;;;15.31;92.30;93343.53;5108088;28;20087;-76
2023/09/27 03:25:56;;;;;;;7.90;2.72;;;;;;;15.19;92.47;93331.47;5108007;28;20070;-77
2023/09/27 03:28:23;;;;;;;4.68;2.72;;;;;;;15.14;92.97;93322.84;5107570;28;20074;-78
2023/09/27 03:30:50;;;;;;;7.93;3.10;;;;;;;15.08;93.13;93317.59;5113907;28;20051;-77
2023/09/27 03:33:17;;;;;;;6.28;3.30;;;;;;;15.14;92.96;93318.44;5107777;28;20090;-77
2023/09/27 03:35:44;;;;;;;9.25;3.63;;;;;;;15.12;93.23;93317.09;5126627;28;20047;-79
2023/09/27 03:38:11;;;;;;;6.40;3.53;;;;;;;15.03;93.79;93320.09;5124648;28;20052;-76
2023/09/27 03:40:41;;;;;;;5.38;2.75;;;;;;;15.07;93.52;93313.44;5108349;28;20700;-76
2023/09/27 03:43:08;;;;;;;7.97;3.20;;;;;;;15.10;93.52;93312.97;5108703;28;20051;-75
2023/09/27 03:45:36;;;;;;;6.60;3.35;;;;;;;15.06;93.67;93316.25;5111990;28;20059;-75
2023/09/27 03:48:04;;;;;;;6.20;3.47;;;;;;;15.02;93.63;93320.31;5106916;28;20043;-76
2023/09/27 03:50:30;;;;;;;5.63;3.10;;;;;;;14.93;93.96;93319.94;5108018;28;20044;-76
2023/09/27 03:52:58;;;;;;;5.55;3.50;;;;;;;15.00;93.86;93324.97;5107542;28;20047;-75
2023/09/27 03:55:27;;;;;;;8.18;3.25;;;;;;;14.94;94.21;93317.13;5106888;28;20150;-75
2023/09/27 03:57:55;;;;;;;5.68;3.42;;;;;;;14.94;94.34;93331.84;5109201;27;20048;-74
2023/09/27 04:00:22;;;;;;;7.43;3.90;;;;;;;15.01;94.24;93327.31;5111234;27;20051;-74
2023/09/27 04:02:49;;;;;;;5.28;3.00;;;;;;;14.98;94.44;93324.38;5112711;27;20131;-75
2023/09/27 04:05:18;;;;;;;5.40;3.47;;;;;;;15.00;94.64;93330.13;5111219;27;20055;-74
2023/09/27 04:07:45;;;;;;;4.30;3.10;;;;;;;14.90;95.00;93341.09;5117057;27;20039;-75
2023/09/27 04:10:12;;;;;;;5.03;3.15;;;;;;;14.85;95.12;93325.50;5111330;27;20055;-75
2023/09/27 04:12:39;;;;;;;5.22;3.45;;;;;;;14.84;95.61;93342.81;5110638;27;20082;-76
2023/09/27 04:15:09;;;;;;;8.40;3.40;;;;;;;14.87;95.53;93333.78;5110915;27;20043;-75
2023/09/27 04:17:37;;;;;;;6.63;3.20;;;;;;;14.81;95.89;93340.66;5110580;27;20047;-76
2023/09/27 04:20:14;;;;;;;11.38;3.53;;;;;;;14.79;96.08;93345.28;5110673;27;20117;-75
2023/09/27 04:22:43;;;;;;;6.85;3.20;;;;;;;14.76;96.43;93338.03;5110780;27;20046;-77
2023/09/27 04:25:12;;;;;;;4.85;3.30;;;;;;;14.81;96.60;93338.09;5110938;27;20059;-77
2023/09/27 04:27:39;;;;;;;6.45;3.40;;;;;;;14.68;97.32;93352.06;5114958;27;20043;-77
2023/09/27 04:30:11;;;;;;;5.22;3.28;;;;;;;14.72;97.26;93345.41;5110798;27;20132;-76
2023/09/27 04:32:39;;;;;;;9.48;3.40;;;;;;;14.70;97.57;93343.06;5111133;27;20502;-76
2023/09/27 04:35:08;;;;;;;8.40;3.35;;;;;;;14.67;98.06;93337.56;5109720;28;20062;-76
2023/09/27 04:37:35;;;;;;;11.02;3.58;;;;;;;14.67;98.35;93369.38;5110750;27;20052;-77
2023/09/27 04:40:03;;;;;;;5.45;3.40;;;;;;;14.76;97.99;93348.38;5110204;27;20073;-77
2023/09/27 04:42:30;;;;;;;8.25;4.00;;;;;;;14.78;97.93;93351.50;5110611;27;20050;-76
2023/09/27 04:44:57;;;;;;;7.03;3.78;;;;;;;14.77;97.60;93349.94;5112454;27;20092;-77
2023/09/27 04:47:25;;;;;;;8.50;3.55;;;;;;;14.71;98.03;93351.59;5111935;27;20137;-75
2023/09/27 04:49:52;;;;;;;8.70;3.80;;;;;;;14.73;98.11;93349.56;5113102;27;20047;-76
2023/09/27 04:52:20;;;;;;;6.57;3.30;;;;;;;14.76;97.93;93356.13;5112084;27;20102;-77
2023/09/27 04:54:47;;;;;;;6.72;3.38;;;;;;;14.80;97.73;93352.81;5117649;27;20518;-78
2023/09/27 04:57:14;;;;;;;7.53;3.67;;;;;;;14.74;97.98;93348.56;5113855;27;20052;-76
2023/09/27 04:59:40;;;;;;;9.48;4.10;;;;;;;14.82;97.57;93353.38;5112441;27;20577;-77
2023/09/27 05:02:07;;;;;;;8.68;4.15;;;;;;;14.82;97.29;93348.19;5112165;27;20044;-78
2023/09/27 05:04:36;;;;;;;7.93;4.45;;;;;;;14.85;97.72;93362.47;5113752;27;20431;-78
2023/09/27 05:07:03;;;;;;;6.35;3.70;;;;;;;14.80;97.71;93346.88;5120430;27;20047;-77
2023/09/27 05:09:30;;;;;;;8.05;3.38;;;;;;;14.70;97.96;93330.16;5128303;27;20062;-77
2023/09/27 05:11:57;;;;;;;6.65;3.63;;;;;;;14.91;97.95;93361.53;5127371;27;20149;-77
2023/09/27 05:14:24;;;;;;;7.75;3.53;;;;;;;14.91;98.61;93361.53;5111326;27;20043;-76
2023/09/27 05:16:50;;;;;;;8.68;3.80;;;;;;;14.86;98.97;93358.84;5123545;27;20392;-77
2023/09/27 05:19:17;;;;;;;8.38;3.28;;;;;;;14.94;99.23;93355.91;5108679;27;20051;-76
2023/09/27 05:21:45;;;;;;;7.93;4.05;;;;;;;14.95;99.20;93354.88;5116174;27;20055;-76
2023/09/27 05:24:12;;;;;;;9.35;3.80;;;;;;;14.87;99.93;93350.09;5114118;27;20056;-76
2023/09/27 05:26:39;;;;;;;8.48;3.70;;;;;;;14.72;99.91;93332.47;5110794;27;20058;-75
2023/09/27 05:29:06;;;;;;;7.82;3.45;;;;;;;14.96;100.00;93364.22;5109714;27;20052;-77
2023/09/27 05:31:33;;;;;;;7.43;3.88;;;;;;;14.92;100.00;93370.09;5109772;27;20058;-75
2023/09/27 05:33:59;;;;;;;9.77;4.50;;;;;;;14.81;100.00;93340.66;5111702;27;20059;-75
2023/09/27 05:36:26;;;;;;;7.40;3.92;;;;;;;14.86;100.00;93350.34;5109980;27;20478;-76
2023/09/27 05:38:54;;;;;;;7.03;4.47;;;;;;;14.95;100.00;93364.47;5108573;27;20051;-76
2023/09/27 05:41:21;;;;;;;9.45;4.00;;;;;;;15.03;100.00;93366.66;5109857;27;20047;-77
2023/09/27 05:43:48;;;;;;;8.80;4.35;;;;;;;14.99;100.00;93372.53;5114038;27;20108;-76
2023/09/27 05:46:15;;;;;;;6.35;4.18;;;;;;;14.69;100.00;93315.63;5122443;27;20051;-78
2023/09/27 05:48:42;;;;;;;6.05;3.80;;;;;;;14.87;100.00;93368.22;5109091;27;20051;-77
2023/09/27 05:51:09;;;;;;;9.82;4.57;;;;;;;14.91;100.00;93366.72;5109750;27;20051;-76
2023/09/27 05:53:36;;;;;;;7.30;4.00;;;;;;;14.92;100.00;93373.47;5109626;27;20130;-76
2023/09/27 05:56:05;;;;;;;8.50;4.03;;;;;;;15.01;100.00;93376.47;5109456;27;20047;-76
2023/09/27 05:58:34;;;;;;;8.48;4.35;;;;;;;15.13;100.00;93385.97;5108478;27;20051;-75
2023/09/27 06:01:02;;;;;;;9.80;4.00;;;;;;;15.02;100.00;93365.09;5112443;27;20051;-76
2023/09/27 06:03:30;;;;;;;5.25;3.63;;;;;;;15.18;100.00;93375.72;5121348;27;20539;-76
2023/09/27 06:05:58;;;;;;;6.68;3.80;;;;;;;15.26;100.00;93383.06;5122447;27;20126;-76
2023/09/27 06:08:25;;;;;;;8.52;4.57;;;;;;;15.18;100.00;93376.47;5119218;27;20464;-76
2023/09/27 06:10:52;;;;;;;6.22;3.58;;;;;;;15.36;100.00;93377.25;5110007;27;20051;-75
2023/09/27 06:13:20;;;;;;;8.05;4.30;;;;;;;15.30;100.00;93383.38;5126693;27;20055;-77
2023/09/27 06:15:47;;;;;;;7.75;4.57;;;;;;;15.38;100.00;93374.44;5108527;27;20403;-76
2023/09/27 06:18:14;;;;;;;6.97;4.07;;;;;;;15.32;100.00;93374.38;5112225;27;20051;-76
2023/09/27 06:20:41;;;;;;;6.75;3.85;;;;;;;15.44;100.00;93382.06;5123503;27;20079;-77
2023/09/27 06:23:09;;;;;;;9.88;4.45;;;;;;;15.45;100.00;93365.50;5108874;27;20130;-76
2023/09/27 06:25:36;;;;;;;7.55;3.80;;;;;;;15.62;99.04;93388.81;5116029;27;20051;-75
2023/09/27 06:28:03;;;;;;;7.95;3.97;;;;;;;15.68;98.95;93386.28;5107618;28;20047;-76
2023/09/27 06:30:32;;;;;;;7.07;4.75;;;;;;;15.77;98.30;93385.66;5111493;27;20054;-76
2023/09/27 06:32:58;;;;;;;6.47;4.03;;;;;;;15.96;98.08;93379.47;5111970;27;20055;-77
2023/09/27 06:35:25;;;;;;;6.38;4.25;;;;;;;15.83;95.69;93365.78;5112633;27;20054;-76
2023/09/27 06:37:52;;;;;;;7.82;3.75;;;;;;;16.21;95.80;93381.59;5108835;27;20407;-76
2023/09/27 06:40:22;;;;;;;9.75;4.47;;;;;;;16.11;95.26;93358.91;5122767;27;20047;-76
2023/09/27 06:42:49;;;;;;;7.50;3.75;;;;;;;16.36;95.05;93381.00;5112520;27;20044;-77
2023/09/27 06:45:16;;;;;;;5.32;3.85;;;;;;;16.48;93.82;93396.41;5108671;28;20047;-75
2023/09/27 06:47:46;;;;;;;9.60;3.60;;;;;;;16.36;93.16;93368.03;5111910;27;20083;-76
2023/09/27 06:50:13;;;;;;;9.32;3.72;;;;;;;16.55;93.77;93389.25;5108718;27;20052;-76
2023/09/27 06:52:40;;;;;;;8.07;3.75;;;;;;;16.48;93.77;93398.25;5108358;28;20055;-77
2023/09/27 06:55:10;;;;;;;8.30;3.38;;;;;;;16.70;93.60;93387.84;5115336;28;20086;-76
2023/09/27 06:57:38;;;;;;;7.97;4.25;;;;;;;16.90;91.64;93396.88;5118386;28;20440;-75
2023/09/27 07:00:09;;;;;;;6.70;3.80;;;;;;;16.93;90.85;93388.59;5123858;28;20455;-76
2023/09/27 07:02:38;;;;;;;8.75;4.00;;;;;;;17.01;91.80;93400.34;5111126;27;20092;-76
2023/09/27 07:05:07;;;;;;;5.72;3.72;;;;;;;17.08;91.54;93390.59;5108673;28;20054;-77
2023/09/27 07:07:34;;;;;;;6.15;2.95;;;;;;;17.04;88.18;93395.47;5114289;28;20051;-76
2023/09/27 07:10:01;;;;;;;9.20;3.47;;;;;;;17.22;85.96;93393.59;5113651;27;20602;-78
2023/09/27 07:12:28;;;;;;;8.15;2.97;;;;;;;17.36;85.88;93399.91;5119146;28;20066;-76
2023/09/27 07:14:55;;;;;;;6.63;4.15;;;;;;;17.38;85.21;93384.09;5119780;27;20520;-76
2023/09/27 07:17:22;;;;;;;6.95;3.50;;;;;;;17.31;81.49;93383.53;5108649;28;20052;-77
2023/09/27 07:19:51;;;;;;;8.40;3.63;;;;;;;17.69;83.02;93412.88;5108704;28;20079;-77
2023/09/27 07:22:19;;;;;;;7.38;3.20;;;;;;;17.74;82.49;93419.97;5108476;28;20048;-76
2023/09/27 07:24:46;;;;;;;7.40;2.75;;;;;;;17.71;82.08;93413.44;5107070;28;20052;-76
2023/09/27 07:27:13;;;;;;;6.97;3.33;;;;;;;17.81;79.87;93407.53;5107800;28;20047;-76
2023/09/27 07:29:40;;;;;;;5.45;3.00;;;;;;;17.72;81.61;93376.03;5107852;28;20052;-77
2023/09/27 07:32:07;;;;;;;4.45;2.80;;;;;;;17.75;81.33;93408.53;5107719;28;20112;-76
2023/09/27 07:34:33;;;;;;;5.82;2.88;;;;;;;17.85;81.50;93418.19;5115546;27;20108;-77
2023/09/27 07:37:00;;;;;;;8.95;3.60;;;;;;;17.90;80.09;93421.63;5128604;27;20054;-76
2023/09/27 07:39:28;;;;;;;5.68;3.08;;;;;;;17.95;79.00;93409.72;5126748;27;20043;-76
2023/09/27 07:41:55;;;;;;;8.32;3.15;;;;;;;17.92;77.40;93407.59;5119788;27;20044;-76
2023/09/27 07:44:22;;;;;;;4.13;2.55;;;;;;;18.00;77.29;93423.50;5117255;27;20418;-77
2023/09/27 07:46:49;;;;;;;4.85;2.90;;;;;;;18.16;77.58;93432.19;5126415;27;20043;-78
2023/09/27 07:49:16;;;;;;;7.82;3.78;;;;;;;18.29;77.09;93436.19;5111557;27;20559;-75
2023/09/27 07:51:44;;;;;;;10.27;4.13;;;;;;;18.22;77.27;93456.41;5111179;27;20047;-77
2023/09/27 07:54:12;;;;;;;7.65;3.90;;;;;;;18.11;76.60;93408.78;5111299;27;20067;-75
2023/09/27 07:56:40;;;;;;;13.10;5.18;;;;;;;18.24;76.59;93440.56;5111851;27;20516;-75
2023/09/27 07:59:07;;;;;;;7.40;4.25;;;;;;;18.45;77.71;93445.88;5116076;27;20123;-74
2023/09/27 08:01:34;;;;;;;10.13;5.63;;;;;;;18.24;77.76;93449.16;5122891;27;20047;-75
2023/09/27 08:04:06;;;;;;;21.52;10.55;;;;;;;18.20;77.39;93442.91;5111861;27;20483;-75
2023/09/27 08:06:34;;;;;;;6.88;3.67;;;;;;;18.11;78.42;93442.59;5111477;27;20047;-76
2023/09/27 08:09:01;;;;;;;6.63;3.70;;;;;;;18.19;79.22;93448.34;5114090;27;20107;-77
2023/09/27 08:11:28;;;;;;;7.93;3.78;;;;;;;18.26;78.05;93454.09;5121447;27;20050;-75
2023/09/27 08:13:56;;;;;;;12.55;5.10;;;;;;;18.10;78.70;93454.00;5111505;27;20051;-75
2023/09/27 08:16:23;;;;;;;8.40;3.53;;;;;;;18.21;79.17;93447.06;5114513;27;20054;-76
2023/09/27 08:18:50;;;;;;;6.20;3.80;;;;;;;18.23;80.08;93460.59;5111556;27;20499;-75
2023/09/27 08:21:18;;;;;;;6.30;3.58;;;;;;;18.21;77.96;93449.66;5111181;27;20055;-76
2023/09/27 08:23:45;;;;;;;8.88;2.95;;;;;;;18.37;77.58;93460.16;5110840;27;20048;-76
2023/09/27 08:26:13;;;;;;;5.53;3.00;;;;;;;18.60;77.27;93468.59;5110477;27;20047;-76
2023/09/27 08:28:40;;;;;;;8.23;3.97;;;;;;;18.80;76.97;93463.44;5110377;27;20075;-76
2023/09/27 08:31:09;;;;;;;5.32;2.90;;;;;;;18.75;76.70;93454.88;5111554;27;20087;-76
2023/09/27 08:33:36;;;;;;;6.13;3.42;;;;;;;18.79;76.04;93468.94;5110883;27;20047;-75
2023/09/27 08:36:03;;;;;;;7.68;3.38;;;;;;;18.92;74.51;93462.44;5111829;27;20058;-75
2023/09/27 08:38:30;;;;;;;5.78;3.00;;;;;;;18.99;74.62;93452.59;5115110;27;20047;-75
2023/09/27 08:40:57;;;;;;;5.35;2.83;;;;;;;18.85;73.02;93457.50;5117531;27;20047;-75
2023/09/27 08:43:26;;;;;;;4.47;2.40;;;;;;;18.88;72.57;93453.63;5119358;27;20055;-76
2023/09/27 08:45:53;;;;;;;5.38;3.17;;;;;;;18.96;72.31;93453.91;5117957;27;20054;-76
2023/09/27 08:48:24;;;;;;;6.47;2.63;;;;;;;18.97;72.72;93441.66;5117960;27;20054;-76
2023/09/27 08:50:51;;;;;;;6.50;3.35;;;;;;;19.23;72.80;93460.78;5110512;27;20093;-76
2023/09/27 08:53:18;;;;;;;6.82;3.20;;;;;;;19.26;72.19;93456.06;5110047;27;20051;-76
2023/09/27 08:55:48;;;;;;;7.88;2.75;;;;;;;19.11;70.70;93455.00;5111456;27;20047;-76
2023/09/27 08:58:15;;;;;;;6.50;3.03;;;;;;;19.14;70.30;93458.91;5111205;27;20081;-75
2023/09/27 09:00:43;;;;;;;8.75;2.80;;;;;;;19.42;70.79;93456.88;5113298;27;20054;-75
2023/09/27 09:03:10;;;;;;;8.90;2.80;;;;;;;19.71;68.63;93467.59;5111212;27;20546;-75
2023/09/27 09:05:41;;;;;;;5.30;2.80;;;;;;;19.79;69.30;93468.88;5112392;27;20579;-76
2023/09/27 09:08:09;;;;;;;5.00;3.00;;;;;;;19.58;69.98;93461.06;5122178;27;20047;-76
2023/09/27 09:10:37;;;;;;;5.63;3.13;;;;;;;19.87;68.63;93454.56;5122173;27;20124;-75
2023/09/27 09:13:04;;;;;;;6.35;2.78;;;;;;;19.90;66.55;93461.84;5110302;27;20051;-75
2023/09/27 09:15:39;;;;;;;8.77;2.55;;;;;;;19.75;66.62;93467.84;5109956;27;20066;-76
2023/09/27 09:18:08;;;;;;;4.78;2.63;;;;;;;19.61;66.95;93460.56;5118804;27;20100;-75
2023/09/27 09:20:49;;;;;;;6.28;2.72;;;;;;;19.71;67.25;93464.19;5116620;27;20502;-76
2023/09/27 09:23:33;;;;;;;5.47;2.42;;;;;;;19.67;66.82;93450.13;5109594;27;20055;-77
2023/09/27 09:26:00;;;;;;;7.63;3.10;;;;;;;19.49;70.08;93452.22;5113507;27;20445;-76
2023/09/27 09:28:27;;;;;;;9.05;3.72;;;;;;;19.83;70.67;93450.91;5109749;27;20052;-75
2023/09/27 09:30:55;;;;;;;9.43;2.80;;;;;;;19.66;69.57;93432.94;5109908;27;20047;-77
2023/09/27 09:33:24;;;;;;;6.82;3.53;;;;;;;19.73;70.26;93438.66;5109818;27;20097;-75
2023/09/27 09:35:53;;;;;;;5.00;3.67;;;;;;;19.99;68.88;93470.75;5112272;27;20054;-75
2023/09/27 09:38:29;;;;;;;10.43;3.60;;;;;;;20.03;66.85;93456.13;5109743;27;20052;-76
2023/09/27 09:40:58;;;;;;;7.07;3.80;;;;;;;19.99;67.57;93462.13;5112135;27;20187;-76
2023/09/27 09:43:33;;;;;;;6.72;3.03;;;;;;;19.98;67.69;93463.97;5111076;27;20083;-76
2023/09/27 09:46:00;;;;;;;7.65;2.83;;;;;;;19.73;68.22;93457.66;5111978;27;20055;-76
2023/09/27 09:48:28;;;;;;;5.97;3.08;;;;;;;19.63;69.08;93453.25;5116405;27;20126;-76
2023/09/27 09:51:03;;;;;;;6.38;3.10;;;;;;;19.66;68.58;93453.78;5114401;27;20527;-76
2023/09/27 09:53:30;;;;;;;5.88;2.70;;;;;;;19.88;68.35;93453.50;5109008;27;20055;-76
2023/09/27 09:56:00;;;;;;;6.85;3.40;;;;;;;19.90;67.42;93440.97;5121929;27;20062;-75
2023/09/27 09:58:35;;;;;;;7.85;3.10;;;;;;;20.08;67.92;93447.53;5109558;27;20051;-75
2023/09/27 10:01:04;;;;;;;13.88;3.55;;;;;;;20.02;67.45;93435.53;5116157;27;20048;-75
2023/09/27 10:03:32;;;;;;;8.10;2.63;;;;;;;20.13;68.06;93449.31;5110301;27;20173;-75
2023/09/27 10:06:01;;;;;;;4.45;2.67;;;;;;;20.13;68.37;93449.31;5112475;27;20083;-75
2023/09/27 10:08:34;;;;;;;10.10;2.85;;;;;;;20.28;68.24;93444.09;5111515;27;20055;-76
2023/09/27 10:11:04;;;;;;;6.68;3.22;;;;;;;20.39;68.99;93438.84;5111045;27;20047;-76
2023/09/27 10:13:35;;;;;;;6.22;2.72;;;;;;;20.34;67.95;93438.88;5111328;27;20061;-76
2023/09/27 10:16:03;;;;;;;4.75;2.83;;;;;;;20.36;66.44;93419.28;5109173;27;20091;-75
2023/09/27 10:18:30;;;;;;;9.95;3.40;;;;;;;20.64;67.37;93440.59;5112094;27;20083;-75
2023/09/27 10:21:03;;;;;;;7.13;3.67;;;;;;;20.93;66.76;93432.13;5116887;27;20108;-75
2023/09/27 10:23:34;;;;;;;7.15;3.40;;;;;;;21.00;64.31;93431.84;5114927;27;20092;-75
2023/09/27 10:26:23;;;;;;;7.40;2.65;;;;;;;20.80;65.07;93423.06;5110768;27;20101;-75
2023/09/27 10:29:10;;;;;;;5.50;2.55;;;;;;;21.10;65.75;93431.00;5113327;27;20039;-75
2023/09/27 10:31:38;;;;;;;8.43;3.55;;;;;;;21.11;64.62;93421.34;5112976;27;20043;-75
2023/09/27 10:34:41;;;;;;;7.93;2.58;;;;;;;21.21;64.10;93416.84;5117332;27;20103;-75
2023/09/27 10:37:08;;;;;;;5.65;3.65;;;;;;;21.16;64.56;93411.66;5103253;27;20125;-75
2023/09/27 10:39:38;;;;;;;13.13;3.60;;;;;;;21.35;64.27;93417.00;5098860;27;20052;-75
2023/09/27 10:42:07;;;;;;;6.88;2.75;;;;;;;21.48;63.53;93414.84;5101603;27;20051;-76
2023/09/27 10:44:35;;;;;;;7.22;2.47;;;;;;;21.64;62.99;93410.28;5095551;28;20047;-76
2023/09/27 10:47:04;;;;;;;8.45;3.17;;;;;;;21.68;61.88;93397.44;5088131;28;20052;-76
2023/09/27 10:49:38;;;;;;;7.53;2.95;;;;;;;21.76;62.00;93408.09;5089144;28;20137;-75
2023/09/27 10:52:05;;;;;;;6.43;2.50;;;;;;;21.94;60.64;93415.56;5088644;28;20059;-76
2023/09/27 10:54:33;;;;;;;5.82;3.00;;;;;;;22.08;61.32;93403.38;5089338;28;20137;-75
2023/09/27 10:57:03;;;;;;;5.45;2.30;;;;;;;22.06;60.08;93399.47;5090812;28;20074;-78
2023/09/27 10:59:31;;;;;;;11.10;2.50;;;;;;;22.13;61.05;93405.94;5090737;28;20514;-76
2023/09/27 11:01:59;;;;;;;4.88;2.40;;;;;;;22.33;61.80;93406.00;5088896;28;20507;-75
2023/09/27 11:04:27;;;;;;;7.95;2.90;;;;;;;22.40;61.69;93388.91;5088249;28;20052;-75
2023/09/27 11:06:56;;;;;;;5.03;2.90;;;;;;;22.65;59.91;93383.69;5088968;28;20066;-75
2023/09/27 11:09:23;;;;;;;6.70;2.30;;;;;;;22.78;57.61;93382.22;5096524;28;20052;-76
2023/09/27 11:11:52;;;;;;;5.85;2.00;;;;;;;22.38;58.47;93401.50;5093949;28;20055;-76
2023/09/27 11:14:30;;;;;;;6.65;2.72;;;;;;;21.99;60.45;93381.50;5096930;28;20085;-76
2023/09/27 11:17:14;;;;;;;7.47;2.58;;;;;;;22.31;58.99;93379.34;5092985;28;20548;-76
2023/09/27 11:19:41;;;;;;;4.47;2.55;;;;;;;22.42;60.90;93378.16;5094330;28;20088;-76
2023/09/27 11:22:08;;;;;;;7.90;3.22;;;;;;;22.60;61.19;93381.91;5096338;28;20440;-75
2023/09/27 11:24:39;;;;;;;5.95;2.22;;;;;;;22.49;62.15;93370.75;5100438;28;20124;-76
2023/09/27 11:27:06;;;;;;;5.78;2.58;;;;;;;22.47;62.00;93372.88;5096655;28;20071;-76
2023/09/27 11:29:33;;;;;;;6.10;2.63;;;;;;;22.49;60.75;93389.06;5097134;28;20051;-76
2023/09/27 11:32:02;;;;;;;7.82;2.80;;;;;;;22.51;61.39;93375.72;5101906;28;20048;-78
2023/09/27 11:34:30;;;;;;;4.55;2.60;;;;;;;22.65;61.31;93381.84;5095768;28;20250;-78
2023/09/27 11:37:00;;;;;;;5.03;2.58;;;;;;;21.99;61.73;93376.28;5109912;27;20570;-75